sensor_id;sensor_type;location;lat;lon;timestamp;P1;durP1;ratioP1;P2;durP2;ratioP2
23826;SDS011;12094;50.822;4.376;2022-10-17T00:01:16;14.98;;;9.25;;
23826;SDS011;12094;50.822;4.376;2022-10-17T00:03:47;11.88;;;9.27;;
23826;SDS011;12094;50.822;4.376;2022-10-17T00:06:15;17.48;;;9.18;;
23826;SDS011;12094;50.822;4.376;2022-10-17T00:08:42;12.25;;;9.30;;
23826;SDS011;12094;50.822;4.376;2022-10-17T00:11:16;12.85;;;8.55;;
23826;SDS011;12094;50.822;4.376;2022-10-17T00:13:50;11.77;;;8.43;;
23826;SDS011;12094;50.822;4.376;2022-10-17T00:16:24;12.50;;;8.18;;
23826;SDS011;12094;50.822;4.376;2022-10-17T00:18:59;14.23;;;8.00;;
23826;SDS011;12094;50.822;4.376;2022-10-17T00:21:35;13.68;;;8.20;;
23826;SDS011;12094;50.822;4.376;2022-10-17T00:24:02;11.15;;;7.90;;
23826;SDS011;12094;50.822;4.376;2022-10-17T00:29:03;13.32;;;7.50;;
23826;SDS011;12094;50.822;4.376;2022-10-17T00:31:31;10.80;;;6.95;;
23826;SDS011;12094;50.822;4.376;2022-10-17T00:33:58;11.20;;;7.50;;
23826;SDS011;12094;50.822;4.376;2022-10-17T00:36:30;10.75;;;7.47;;
23826;SDS011;12094;50.822;4.376;2022-10-17T00:38:58;10.43;;;7.47;;
23826;SDS011;12094;50.822;4.376;2022-10-17T00:41:27;12.77;;;8.20;;
23826;SDS011;12094;50.822;4.376;2022-10-17T00:46:28;15.85;;;7.78;;
23826;SDS011;12094;50.822;4.376;2022-10-17T00:48:59;14.43;;;7.78;;
23826;SDS011;12094;50.822;4.376;2022-10-17T00:51:33;11.57;;;7.63;;
23826;SDS011;12094;50.822;4.376;2022-10-17T00:56:43;16.95;;;8.07;;
23826;SDS011;12094;50.822;4.376;2022-10-17T01:01:47;10.25;;;7.13;;
23826;SDS011;12094;50.822;4.376;2022-10-17T01:04:24;11.93;;;8.43;;
23826;SDS011;12094;50.822;4.376;2022-10-17T01:06:51;14.30;;;7.78;;
23826;SDS011;12094;50.822;4.376;2022-10-17T01:09:19;14.75;;;8.50;;
23826;SDS011;12094;50.822;4.376;2022-10-17T01:12:00;14.38;;;8.25;;
23826;SDS011;12094;50.822;4.376;2022-10-17T01:17:23;10.50;;;7.57;;
23826;SDS011;12094;50.822;4.376;2022-10-17T01:23:17;13.38;;;7.80;;
23826;SDS011;12094;50.822;4.376;2022-10-17T01:29:02;14.77;;;8.38;;
23826;SDS011;12094;50.822;4.376;2022-10-17T01:31:45;12.68;;;7.47;;
23826;SDS011;12094;50.822;4.376;2022-10-17T01:34:19;12.20;;;7.82;;
23826;SDS011;12094;50.822;4.376;2022-10-17T01:37:05;11.13;;;7.38;;
23826;SDS011;12094;50.822;4.376;2022-10-17T01:42:21;17.60;;;7.97;;
23826;SDS011;12094;50.822;4.376;2022-10-17T01:44:54;12.13;;;7.43;;
23826;SDS011;12094;50.822;4.376;2022-10-17T01:47:29;15.85;;;7.55;;
23826;SDS011;12094;50.822;4.376;2022-10-17T01:50:02;11.40;;;7.60;;
23826;SDS011;12094;50.822;4.376;2022-10-17T01:52:41;15.02;;;7.68;;
23826;SDS011;12094;50.822;4.376;2022-10-17T01:55:26;10.95;;;7.43;;
23826;SDS011;12094;50.822;4.376;2022-10-17T01:58:09;13.23;;;7.18;;
23826;SDS011;12094;50.822;4.376;2022-10-17T02:00:42;15.02;;;7.55;;
23826;SDS011;12094;50.822;4.376;2022-10-17T02:03:16;17.13;;;7.70;;
23826;SDS011;12094;50.822;4.376;2022-10-17T02:05:44;15.17;;;8.07;;
23826;SDS011;12094;50.822;4.376;2022-10-17T02:08:20;19.73;;;7.78;;
23826;SDS011;12094;50.822;4.376;2022-10-17T02:10:59;16.33;;;7.65;;
23826;SDS011;12094;50.822;4.376;2022-10-17T02:25:00;15.20;;;7.90;;
23826;SDS011;12094;50.822;4.376;2022-10-17T02:30:20;11.75;;;7.70;;
23826;SDS011;12094;50.822;4.376;2022-10-17T02:36:13;14.00;;;7.28;;
23826;SDS011;12094;50.822;4.376;2022-10-17T02:38:45;15.13;;;7.85;;
23826;SDS011;12094;50.822;4.376;2022-10-17T02:41:17;17.05;;;7.57;;
23826;SDS011;12094;50.822;4.376;2022-10-17T02:43:48;16.63;;;6.68;;
23826;SDS011;12094;50.822;4.376;2022-10-17T02:46:17;14.73;;;7.57;;
23826;SDS011;12094;50.822;4.376;2022-10-17T02:51:28;12.52;;;6.05;;
23826;SDS011;12094;50.822;4.376;2022-10-17T02:57:13;14.50;;;6.90;;
23826;SDS011;12094;50.822;4.376;2022-10-17T02:59:53;11.05;;;6.47;;
23826;SDS011;12094;50.822;4.376;2022-10-17T03:02:23;10.65;;;6.80;;
23826;SDS011;12094;50.822;4.376;2022-10-17T03:04:52;15.45;;;7.10;;
23826;SDS011;12094;50.822;4.376;2022-10-17T03:07:19;17.13;;;6.90;;
23826;SDS011;12094;50.822;4.376;2022-10-17T03:09:47;10.13;;;6.53;;
23826;SDS011;12094;50.822;4.376;2022-10-17T03:12:14;11.60;;;7.63;;
23826;SDS011;12094;50.822;4.376;2022-10-17T03:14:41;11.30;;;6.10;;
23826;SDS011;12094;50.822;4.376;2022-10-17T03:17:11;12.80;;;7.00;;
23826;SDS011;12094;50.822;4.376;2022-10-17T03:19:41;13.90;;;7.53;;
23826;SDS011;12094;50.822;4.376;2022-10-17T03:25:03;14.02;;;7.03;;
23826;SDS011;12094;50.822;4.376;2022-10-17T03:27:33;12.52;;;7.40;;
23826;SDS011;12094;50.822;4.376;2022-10-17T03:30:03;12.60;;;7.32;;
23826;SDS011;12094;50.822;4.376;2022-10-17T03:32:33;16.83;;;8.20;;
23826;SDS011;12094;50.822;4.376;2022-10-17T03:37:30;13.32;;;7.80;;
23826;SDS011;12094;50.822;4.376;2022-10-17T03:39:58;14.60;;;7.95;;
23826;SDS011;12094;50.822;4.376;2022-10-17T03:42:26;14.18;;;7.63;;
23826;SDS011;12094;50.822;4.376;2022-10-17T03:44:54;15.15;;;8.45;;
23826;SDS011;12094;50.822;4.376;2022-10-17T03:47:22;15.10;;;7.10;;
23826;SDS011;12094;50.822;4.376;2022-10-17T03:49:50;12.30;;;7.75;;
23826;SDS011;12094;50.822;4.376;2022-10-17T03:52:20;15.82;;;7.93;;
23826;SDS011;12094;50.822;4.376;2022-10-17T03:54:52;12.90;;;7.72;;
23826;SDS011;12094;50.822;4.376;2022-10-17T03:57:19;13.52;;;8.02;;
23826;SDS011;12094;50.822;4.376;2022-10-17T03:59:46;18.67;;;9.73;;
23826;SDS011;12094;50.822;4.376;2022-10-17T04:02:17;14.60;;;8.32;;
23826;SDS011;12094;50.822;4.376;2022-10-17T04:04:44;14.55;;;8.05;;
23826;SDS011;12094;50.822;4.376;2022-10-17T04:07:11;12.32;;;7.50;;
23826;SDS011;12094;50.822;4.376;2022-10-17T04:09:42;12.75;;;8.18;;
23826;SDS011;12094;50.822;4.376;2022-10-17T04:14:43;11.40;;;7.60;;
23826;SDS011;12094;50.822;4.376;2022-10-17T04:17:11;12.80;;;7.35;;
23826;SDS011;12094;50.822;4.376;2022-10-17T04:19:40;12.43;;;7.03;;
23826;SDS011;12094;50.822;4.376;2022-10-17T04:22:07;14.55;;;7.53;;
23826;SDS011;12094;50.822;4.376;2022-10-17T04:24:38;10.10;;;7.35;;
23826;SDS011;12094;50.822;4.376;2022-10-17T04:27:08;10.77;;;7.38;;
23826;SDS011;12094;50.822;4.376;2022-10-17T04:29:40;11.90;;;7.22;;
23826;SDS011;12094;50.822;4.376;2022-10-17T04:32:15;12.45;;;7.38;;
23826;SDS011;12094;50.822;4.376;2022-10-17T04:35:00;11.60;;;7.18;;
23826;SDS011;12094;50.822;4.376;2022-10-17T04:37:28;11.00;;;7.32;;
23826;SDS011;12094;50.822;4.376;2022-10-17T04:39:58;11.15;;;6.75;;
23826;SDS011;12094;50.822;4.376;2022-10-17T04:42:31;17.50;;;7.30;;
23826;SDS011;12094;50.822;4.376;2022-10-17T04:44:59;11.80;;;7.05;;
23826;SDS011;12094;50.822;4.376;2022-10-17T04:47:28;14.40;;;7.15;;
23826;SDS011;12094;50.822;4.376;2022-10-17T04:49:56;9.43;;;6.53;;
23826;SDS011;12094;50.822;4.376;2022-10-17T04:52:24;13.23;;;6.90;;
23826;SDS011;12094;50.822;4.376;2022-10-17T04:54:53;11.77;;;6.57;;
23826;SDS011;12094;50.822;4.376;2022-10-17T04:57:20;13.15;;;6.75;;
23826;SDS011;12094;50.822;4.376;2022-10-17T04:59:54;11.95;;;6.57;;
23826;SDS011;12094;50.822;4.376;2022-10-17T05:02:33;8.82;;;6.20;;
23826;SDS011;12094;50.822;4.376;2022-10-17T05:05:04;15.82;;;7.72;;
23826;SDS011;12094;50.822;4.376;2022-10-17T05:07:38;11.48;;;6.60;;
23826;SDS011;12094;50.822;4.376;2022-10-17T05:10:10;15.57;;;6.80;;
23826;SDS011;12094;50.822;4.376;2022-10-17T05:12:42;14.88;;;6.65;;
23826;SDS011;12094;50.822;4.376;2022-10-17T05:15:11;11.30;;;6.47;;
23826;SDS011;12094;50.822;4.376;2022-10-17T05:17:39;14.15;;;6.53;;
23826;SDS011;12094;50.822;4.376;2022-10-17T05:22:39;8.82;;;6.20;;
23826;SDS011;12094;50.822;4.376;2022-10-17T05:25:09;12.55;;;6.50;;
23826;SDS011;12094;50.822;4.376;2022-10-17T05:27:36;15.32;;;6.22;;
23826;SDS011;12094;50.822;4.376;2022-10-17T05:30:04;11.68;;;6.03;;
23826;SDS011;12094;50.822;4.376;2022-10-17T05:32:34;8.50;;;6.03;;
23826;SDS011;12094;50.822;4.376;2022-10-17T05:35:02;12.43;;;6.20;;
23826;SDS011;12094;50.822;4.376;2022-10-17T05:37:32;14.45;;;6.47;;
23826;SDS011;12094;50.822;4.376;2022-10-17T05:40:01;8.88;;;6.22;;
23826;SDS011;12094;50.822;4.376;2022-10-17T05:42:29;8.95;;;6.38;;
23826;SDS011;12094;50.822;4.376;2022-10-17T05:44:57;8.90;;;5.68;;
23826;SDS011;12094;50.822;4.376;2022-10-17T05:47:26;11.45;;;6.53;;
23826;SDS011;12094;50.822;4.376;2022-10-17T05:49:53;10.52;;;6.07;;
23826;SDS011;12094;50.822;4.376;2022-10-17T05:52:28;9.02;;;5.97;;
23826;SDS011;12094;50.822;4.376;2022-10-17T05:55:07;9.75;;;5.30;;
23826;SDS011;12094;50.822;4.376;2022-10-17T05:57:36;11.38;;;5.82;;
23826;SDS011;12094;50.822;4.376;2022-10-17T06:00:06;12.00;;;5.70;;
23826;SDS011;12094;50.822;4.376;2022-10-17T06:02:40;10.25;;;5.22;;
23826;SDS011;12094;50.822;4.376;2022-10-17T06:05:10;11.15;;;6.30;;
23826;SDS011;12094;50.822;4.376;2022-10-17T06:07:41;16.70;;;5.93;;
23826;SDS011;12094;50.822;4.376;2022-10-17T06:12:42;7.03;;;5.40;;
23826;SDS011;12094;50.822;4.376;2022-10-17T06:15:10;13.73;;;5.47;;
23826;SDS011;12094;50.822;4.376;2022-10-17T06:17:41;13.10;;;5.72;;
23826;SDS011;12094;50.822;4.376;2022-10-17T06:20:08;9.90;;;5.82;;
23826;SDS011;12094;50.822;4.376;2022-10-17T06:22:35;15.27;;;6.65;;
23826;SDS011;12094;50.822;4.376;2022-10-17T06:25:07;8.98;;;5.47;;
23826;SDS011;12094;50.822;4.376;2022-10-17T06:27:34;9.38;;;5.25;;
23826;SDS011;12094;50.822;4.376;2022-10-17T06:30:02;11.55;;;6.13;;
23826;SDS011;12094;50.822;4.376;2022-10-17T06:32:31;10.77;;;5.50;;
23826;SDS011;12094;50.822;4.376;2022-10-17T06:35:00;15.25;;;6.57;;
23826;SDS011;12094;50.822;4.376;2022-10-17T06:37:29;10.75;;;5.97;;
23826;SDS011;12094;50.822;4.376;2022-10-17T06:40:05;8.80;;;5.10;;
23826;SDS011;12094;50.822;4.376;2022-10-17T06:42:37;12.55;;;5.40;;
23826;SDS011;12094;50.822;4.376;2022-10-17T06:45:23;12.80;;;5.40;;
23826;SDS011;12094;50.822;4.376;2022-10-17T06:48:05;10.50;;;5.30;;
23826;SDS011;12094;50.822;4.376;2022-10-17T06:50:48;15.05;;;5.13;;
23826;SDS011;12094;50.822;4.376;2022-10-17T06:53:21;12.55;;;5.18;;
23826;SDS011;12094;50.822;4.376;2022-10-17T06:56:06;14.80;;;5.05;;
23826;SDS011;12094;50.822;4.376;2022-10-17T06:58:44;13.48;;;7.85;;
23826;SDS011;12094;50.822;4.376;2022-10-17T07:01:32;14.18;;;5.72;;
23826;SDS011;12094;50.822;4.376;2022-10-17T07:04:01;12.15;;;5.30;;
23826;SDS011;12094;50.822;4.376;2022-10-17T07:06:29;10.70;;;5.70;;
23826;SDS011;12094;50.822;4.376;2022-10-17T07:09:02;11.45;;;5.72;;
23826;SDS011;12094;50.822;4.376;2022-10-17T07:11:34;10.32;;;5.25;;
23826;SDS011;12094;50.822;4.376;2022-10-17T07:14:01;5.88;;;4.68;;
23826;SDS011;12094;50.822;4.376;2022-10-17T07:16:29;13.65;;;5.43;;
23826;SDS011;12094;50.822;4.376;2022-10-17T07:19:12;7.85;;;5.18;;
23826;SDS011;12094;50.822;4.376;2022-10-17T07:21:43;14.77;;;6.30;;
23826;SDS011;12094;50.822;4.376;2022-10-17T07:24:11;15.02;;;5.90;;
23826;SDS011;12094;50.822;4.376;2022-10-17T07:26:41;8.30;;;5.38;;
23826;SDS011;12094;50.822;4.376;2022-10-17T07:29:08;14.18;;;5.80;;
23826;SDS011;12094;50.822;4.376;2022-10-17T07:31:50;14.45;;;6.60;;
23826;SDS011;12094;50.822;4.376;2022-10-17T07:34:17;16.73;;;6.18;;
23826;SDS011;12094;50.822;4.376;2022-10-17T07:36:44;7.35;;;5.78;;
23826;SDS011;12094;50.822;4.376;2022-10-17T07:39:14;13.77;;;6.30;;
23826;SDS011;12094;50.822;4.376;2022-10-17T07:41:41;12.57;;;6.63;;
23826;SDS011;12094;50.822;4.376;2022-10-17T07:44:08;13.68;;;6.82;;
23826;SDS011;12094;50.822;4.376;2022-10-17T07:46:42;12.85;;;6.93;;
23826;SDS011;12094;50.822;4.376;2022-10-17T07:49:09;13.75;;;7.68;;
23826;SDS011;12094;50.822;4.376;2022-10-17T07:51:38;16.13;;;7.80;;
23826;SDS011;12094;50.822;4.376;2022-10-17T07:54:05;16.08;;;7.13;;
23826;SDS011;12094;50.822;4.376;2022-10-17T07:56:32;15.48;;;7.38;;
23826;SDS011;12094;50.822;4.376;2022-10-17T07:58:59;16.02;;;7.80;;
23826;SDS011;12094;50.822;4.376;2022-10-17T08:03:58;14.43;;;6.75;;
23826;SDS011;12094;50.822;4.376;2022-10-17T08:06:26;13.93;;;7.07;;
23826;SDS011;12094;50.822;4.376;2022-10-17T08:08:54;15.90;;;7.32;;
23826;SDS011;12094;50.822;4.376;2022-10-17T08:11:20;15.32;;;7.82;;
23826;SDS011;12094;50.822;4.376;2022-10-17T08:13:48;15.07;;;6.85;;
23826;SDS011;12094;50.822;4.376;2022-10-17T08:16:15;15.23;;;8.50;;
23826;SDS011;12094;50.822;4.376;2022-10-17T08:18:42;13.40;;;9.27;;
23826;SDS011;12094;50.822;4.376;2022-10-17T08:21:09;19.35;;;8.65;;
23826;SDS011;12094;50.822;4.376;2022-10-17T08:23:38;19.63;;;8.52;;
23826;SDS011;12094;50.822;4.376;2022-10-17T08:26:05;15.57;;;9.00;;
23826;SDS011;12094;50.822;4.376;2022-10-17T08:28:36;26.80;;;9.05;;
23826;SDS011;12094;50.822;4.376;2022-10-17T08:31:24;31.30;;;10.20;;
23826;SDS011;12094;50.822;4.376;2022-10-17T08:33:52;18.95;;;9.85;;
23826;SDS011;12094;50.822;4.376;2022-10-17T08:36:19;25.00;;;10.68;;
23826;SDS011;12094;50.822;4.376;2022-10-17T08:38:46;17.20;;;10.02;;
23826;SDS011;12094;50.822;4.376;2022-10-17T08:47:10;22.60;;;9.95;;
23826;SDS011;12094;50.822;4.376;2022-10-17T08:50:24;15.23;;;9.48;;
23826;SDS011;12094;50.822;4.376;2022-10-17T08:52:45;17.63;;;8.85;;
23826;SDS011;12094;50.822;4.376;2022-10-17T08:55:35;15.90;;;9.32;;
23826;SDS011;12094;50.822;4.376;2022-10-17T08:58:23;14.02;;;9.15;;
23826;SDS011;12094;50.822;4.376;2022-10-17T09:00:55;17.02;;;7.45;;
23826;SDS011;12094;50.822;4.376;2022-10-17T09:03:44;10.52;;;7.75;;
23826;SDS011;12094;50.822;4.376;2022-10-17T09:06:41;18.45;;;7.78;;
23826;SDS011;12094;50.822;4.376;2022-10-17T09:09:15;11.68;;;7.05;;
23826;SDS011;12094;50.822;4.376;2022-10-17T09:12:16;10.30;;;6.95;;
23826;SDS011;12094;50.822;4.376;2022-10-17T09:15:23;12.90;;;7.63;;
23826;SDS011;12094;50.822;4.376;2022-10-17T09:17:58;13.93;;;7.18;;
23826;SDS011;12094;50.822;4.376;2022-10-17T09:20:31;14.30;;;8.32;;
23826;SDS011;12094;50.822;4.376;2022-10-17T09:23:19;11.15;;;7.53;;
23826;SDS011;12094;50.822;4.376;2022-10-17T09:25:50;13.40;;;7.47;;
23826;SDS011;12094;50.822;4.376;2022-10-17T09:28:33;14.50;;;7.65;;
23826;SDS011;12094;50.822;4.376;2022-10-17T09:31:06;15.88;;;7.85;;
23826;SDS011;12094;50.822;4.376;2022-10-17T09:33:50;11.15;;;7.90;;
23826;SDS011;12094;50.822;4.376;2022-10-17T09:36:23;15.20;;;8.38;;
23826;SDS011;12094;50.822;4.376;2022-10-17T09:39:18;13.48;;;7.18;;
23826;SDS011;12094;50.822;4.376;2022-10-17T09:41:52;15.63;;;8.20;;
23826;SDS011;12094;50.822;4.376;2022-10-17T09:47:04;17.42;;;8.13;;
23826;SDS011;12094;50.822;4.376;2022-10-17T09:49:36;12.55;;;8.32;;
23826;SDS011;12094;50.822;4.376;2022-10-17T09:52:26;12.45;;;8.27;;
23826;SDS011;12094;50.822;4.376;2022-10-17T09:55:00;18.63;;;8.35;;
23826;SDS011;12094;50.822;4.376;2022-10-17T09:57:28;19.25;;;8.90;;
23826;SDS011;12094;50.822;4.376;2022-10-17T10:00:30;15.15;;;8.52;;
23826;SDS011;12094;50.822;4.376;2022-10-17T10:05:35;14.07;;;8.75;;
23826;SDS011;12094;50.822;4.376;2022-10-17T10:08:03;14.43;;;9.07;;
23826;SDS011;12094;50.822;4.376;2022-10-17T10:10:44;16.80;;;8.88;;
23826;SDS011;12094;50.822;4.376;2022-10-17T10:15:48;16.52;;;9.32;;
23826;SDS011;12094;50.822;4.376;2022-10-17T10:21:03;15.82;;;8.88;;
23826;SDS011;12094;50.822;4.376;2022-10-17T10:23:34;21.15;;;9.20;;
23826;SDS011;12094;50.822;4.376;2022-10-17T10:26:25;19.65;;;9.45;;
23826;SDS011;12094;50.822;4.376;2022-10-17T10:29:02;17.63;;;9.20;;
23826;SDS011;12094;50.822;4.376;2022-10-17T10:31:51;19.10;;;9.30;;
23826;SDS011;12094;50.822;4.376;2022-10-17T10:34:28;15.23;;;8.82;;
23826;SDS011;12094;50.822;4.376;2022-10-17T10:37:04;12.68;;;8.07;;
23826;SDS011;12094;50.822;4.376;2022-10-17T10:39:58;16.10;;;8.65;;
23826;SDS011;12094;50.822;4.376;2022-10-17T10:42:32;16.75;;;8.25;;
23826;SDS011;12094;50.822;4.376;2022-10-17T10:48:18;14.10;;;7.75;;
23826;SDS011;12094;50.822;4.376;2022-10-17T10:50:53;20.38;;;8.88;;
23826;SDS011;12094;50.822;4.376;2022-10-17T10:59:00;12.93;;;8.10;;
23826;SDS011;12094;50.822;4.376;2022-10-17T11:07:02;21.25;;;8.20;;
23826;SDS011;12094;50.822;4.376;2022-10-17T11:09:59;13.07;;;7.65;;
23826;SDS011;12094;50.822;4.376;2022-10-17T11:12:43;12.57;;;8.27;;
23826;SDS011;12094;50.822;4.376;2022-10-17T11:18:10;12.75;;;8.20;;
23826;SDS011;12094;50.822;4.376;2022-10-17T11:20:49;19.83;;;8.15;;
23826;SDS011;12094;50.822;4.376;2022-10-17T11:23:29;16.07;;;8.10;;
23826;SDS011;12094;50.822;4.376;2022-10-17T11:26:06;18.40;;;8.73;;
23826;SDS011;12094;50.822;4.376;2022-10-17T11:28:39;12.23;;;7.97;;
23826;SDS011;12094;50.822;4.376;2022-10-17T11:31:07;15.23;;;8.32;;
23826;SDS011;12094;50.822;4.376;2022-10-17T11:33:46;18.92;;;8.57;;
23826;SDS011;12094;50.822;4.376;2022-10-17T11:36:39;18.08;;;8.77;;
23826;SDS011;12094;50.822;4.376;2022-10-17T11:39:12;16.98;;;8.25;;
23826;SDS011;12094;50.822;4.376;2022-10-17T11:41:46;15.30;;;8.05;;
23826;SDS011;12094;50.822;4.376;2022-10-17T11:44:36;19.73;;;8.07;;
23826;SDS011;12094;50.822;4.376;2022-10-17T11:50:29;20.10;;;8.95;;
23826;SDS011;12094;50.822;4.376;2022-10-17T11:53:23;18.50;;;7.75;;
23826;SDS011;12094;50.822;4.376;2022-10-17T11:55:53;17.08;;;8.68;;
23826;SDS011;12094;50.822;4.376;2022-10-17T12:01:13;17.08;;;8.25;;
23826;SDS011;12094;50.822;4.376;2022-10-17T12:04:01;17.80;;;8.48;;
23826;SDS011;12094;50.822;4.376;2022-10-17T12:11:58;17.48;;;8.13;;
23826;SDS011;12094;50.822;4.376;2022-10-17T12:17:19;16.35;;;8.07;;
23826;SDS011;12094;50.822;4.376;2022-10-17T12:19:47;14.27;;;8.23;;
23826;SDS011;12094;50.822;4.376;2022-10-17T12:22:21;15.02;;;8.90;;
23826;SDS011;12094;50.822;4.376;2022-10-17T12:24:56;14.30;;;8.80;;
23826;SDS011;12094;50.822;4.376;2022-10-17T12:27:33;14.63;;;9.63;;
23826;SDS011;12094;50.822;4.376;2022-10-17T12:32:51;20.92;;;8.77;;
23826;SDS011;12094;50.822;4.376;2022-10-17T12:35:34;12.95;;;8.50;;
23826;SDS011;12094;50.822;4.376;2022-10-17T12:40:54;19.48;;;9.73;;
23826;SDS011;12094;50.822;4.376;2022-10-17T12:43:33;16.15;;;9.45;;
23826;SDS011;12094;50.822;4.376;2022-10-17T12:54:59;17.42;;;10.15;;
23826;SDS011;12094;50.822;4.376;2022-10-17T13:00:34;21.17;;;10.93;;
23826;SDS011;12094;50.822;4.376;2022-10-17T13:03:14;14.18;;;9.63;;
23826;SDS011;12094;50.822;4.376;2022-10-17T13:08:43;18.55;;;10.27;;
23826;SDS011;12094;50.822;4.376;2022-10-17T13:11:10;17.02;;;9.40;;
23826;SDS011;12094;50.822;4.376;2022-10-17T13:13:43;13.38;;;10.13;;
23826;SDS011;12094;50.822;4.376;2022-10-17T13:16:27;17.80;;;9.52;;
23826;SDS011;12094;50.822;4.376;2022-10-17T13:19:15;16.98;;;9.68;;
23826;SDS011;12094;50.822;4.376;2022-10-17T13:24:48;17.92;;;9.73;;
23826;SDS011;12094;50.822;4.376;2022-10-17T13:27:24;14.63;;;7.80;;
23826;SDS011;12094;50.822;4.376;2022-10-17T13:29:51;13.02;;;8.60;;
23826;SDS011;12094;50.822;4.376;2022-10-17T13:32:19;12.25;;;8.80;;
23826;SDS011;12094;50.822;4.376;2022-10-17T13:35:04;8.93;;;7.75;;
23826;SDS011;12094;50.822;4.376;2022-10-17T13:37:36;11.40;;;7.05;;
23826;SDS011;12094;50.822;4.376;2022-10-17T13:40:20;9.88;;;6.53;;
23826;SDS011;12094;50.822;4.376;2022-10-17T13:43:14;10.00;;;6.38;;
23826;SDS011;12094;50.822;4.376;2022-10-17T13:45:50;10.18;;;6.80;;
23826;SDS011;12094;50.822;4.376;2022-10-17T13:48:20;10.57;;;6.50;;
23826;SDS011;12094;50.822;4.376;2022-10-17T13:50:56;8.97;;;5.63;;
23826;SDS011;12094;50.822;4.376;2022-10-17T13:56:00;10.57;;;5.40;;
23826;SDS011;12094;50.822;4.376;2022-10-17T13:58:50;12.63;;;5.53;;
23826;SDS011;12094;50.822;4.376;2022-10-17T14:01:23;11.23;;;4.75;;
23826;SDS011;12094;50.822;4.376;2022-10-17T14:03:53;5.93;;;4.53;;
23826;SDS011;12094;50.822;4.376;2022-10-17T14:09:24;7.05;;;4.40;;
23826;SDS011;12094;50.822;4.376;2022-10-17T14:14:29;11.65;;;4.57;;
23826;SDS011;12094;50.822;4.376;2022-10-17T14:17:23;11.05;;;5.35;;
23826;SDS011;12094;50.822;4.376;2022-10-17T14:19:57;7.65;;;4.35;;
23826;SDS011;12094;50.822;4.376;2022-10-17T14:22:50;7.22;;;4.40;;
23826;SDS011;12094;50.822;4.376;2022-10-17T14:25:39;9.23;;;4.03;;
23826;SDS011;12094;50.822;4.376;2022-10-17T14:30:46;10.98;;;3.97;;
23826;SDS011;12094;50.822;4.376;2022-10-17T14:33:27;7.15;;;4.13;;
23826;SDS011;12094;50.822;4.376;2022-10-17T14:35:56;10.73;;;4.05;;
23826;SDS011;12094;50.822;4.376;2022-10-17T14:38:27;6.80;;;4.00;;
23826;SDS011;12094;50.822;4.376;2022-10-17T14:43:58;7.72;;;4.10;;
23826;SDS011;12094;50.822;4.376;2022-10-17T14:46:28;10.02;;;3.78;;
23826;SDS011;12094;50.822;4.376;2022-10-17T14:49:04;6.47;;;4.43;;
23826;SDS011;12094;50.822;4.376;2022-10-17T14:51:34;5.97;;;4.22;;
23826;SDS011;12094;50.822;4.376;2022-10-17T14:54:26;7.07;;;4.40;;
23826;SDS011;12094;50.822;4.376;2022-10-17T14:56:58;7.88;;;4.30;;
23826;SDS011;12094;50.822;4.376;2022-10-17T14:59:25;12.88;;;4.50;;
23826;SDS011;12094;50.822;4.376;2022-10-17T15:02:12;9.80;;;3.92;;
23826;SDS011;12094;50.822;4.376;2022-10-17T15:04:41;10.50;;;4.85;;
23826;SDS011;12094;50.822;4.376;2022-10-17T15:07:14;8.82;;;4.45;;
23826;SDS011;12094;50.822;4.376;2022-10-17T15:12:21;8.43;;;4.30;;
23826;SDS011;12094;50.822;4.376;2022-10-17T15:14:52;7.28;;;4.63;;
23826;SDS011;12094;50.822;4.376;2022-10-17T15:17:21;10.32;;;4.82;;
23826;SDS011;12094;50.822;4.376;2022-10-17T15:19:58;10.90;;;4.43;;
23826;SDS011;12094;50.822;4.376;2022-10-17T15:22:25;11.23;;;4.53;;
23826;SDS011;12094;50.822;4.376;2022-10-17T15:24:52;8.85;;;4.22;;
23826;SDS011;12094;50.822;4.376;2022-10-17T15:27:20;9.15;;;4.47;;
23826;SDS011;12094;50.822;4.376;2022-10-17T15:29:49;9.85;;;5.45;;
23826;SDS011;12094;50.822;4.376;2022-10-17T15:32:18;7.82;;;4.70;;
23826;SDS011;12094;50.822;4.376;2022-10-17T15:34:45;8.18;;;3.88;;
23826;SDS011;12094;50.822;4.376;2022-10-17T15:37:16;6.80;;;4.25;;
23826;SDS011;12094;50.822;4.376;2022-10-17T15:39:51;6.97;;;3.97;;
23826;SDS011;12094;50.822;4.376;2022-10-17T15:42:21;7.70;;;4.18;;
23826;SDS011;12094;50.822;4.376;2022-10-17T15:44:53;6.32;;;3.58;;
23826;SDS011;12094;50.822;4.376;2022-10-17T15:47:27;7.25;;;3.50;;
23826;SDS011;12094;50.822;4.376;2022-10-17T15:50:00;7.18;;;4.32;;
23826;SDS011;12094;50.822;4.376;2022-10-17T15:52:28;7.97;;;4.13;;
23826;SDS011;12094;50.822;4.376;2022-10-17T15:54:55;7.43;;;3.97;;
23826;SDS011;12094;50.822;4.376;2022-10-17T15:57:30;7.38;;;4.15;;
23826;SDS011;12094;50.822;4.376;2022-10-17T16:00:03;7.47;;;4.65;;
23826;SDS011;12094;50.822;4.376;2022-10-17T16:02:42;9.57;;;4.20;;
23826;SDS011;12094;50.822;4.376;2022-10-17T16:05:12;9.30;;;3.63;;
23826;SDS011;12094;50.822;4.376;2022-10-17T16:07:49;5.93;;;3.92;;
23826;SDS011;12094;50.822;4.376;2022-10-17T16:10:18;9.02;;;3.58;;
23826;SDS011;12094;50.822;4.376;2022-10-17T16:12:45;10.45;;;3.90;;
23826;SDS011;12094;50.822;4.376;2022-10-17T16:15:16;5.45;;;3.97;;
23826;SDS011;12094;50.822;4.376;2022-10-17T16:17:48;7.32;;;4.93;;
23826;SDS011;12094;50.822;4.376;2022-10-17T16:20:15;6.30;;;4.43;;
23826;SDS011;12094;50.822;4.376;2022-10-17T16:22:43;6.47;;;4.47;;
23826;SDS011;12094;50.822;4.376;2022-10-17T16:25:15;6.40;;;5.20;;
23826;SDS011;12094;50.822;4.376;2022-10-17T16:27:51;11.82;;;4.60;;
23826;SDS011;12094;50.822;4.376;2022-10-17T16:30:20;7.18;;;4.63;;
23826;SDS011;12094;50.822;4.376;2022-10-17T16:32:49;8.13;;;4.70;;
23826;SDS011;12094;50.822;4.376;2022-10-17T16:35:18;11.50;;;5.28;;
23826;SDS011;12094;50.822;4.376;2022-10-17T16:37:48;8.70;;;5.10;;
23826;SDS011;12094;50.822;4.376;2022-10-17T16:40:15;13.55;;;5.50;;
23826;SDS011;12094;50.822;4.376;2022-10-17T16:42:43;8.43;;;5.65;;
23826;SDS011;12094;50.822;4.376;2022-10-17T16:45:18;9.88;;;5.00;;
23826;SDS011;12094;50.822;4.376;2022-10-17T16:47:46;8.57;;;4.78;;
23826;SDS011;12094;50.822;4.376;2022-10-17T16:50:14;9.48;;;5.75;;
23826;SDS011;12094;50.822;4.376;2022-10-17T16:52:42;17.52;;;7.85;;
23826;SDS011;12094;50.822;4.376;2022-10-17T16:55:09;8.38;;;6.20;;
23826;SDS011;12094;50.822;4.376;2022-10-17T16:57:37;14.40;;;6.57;;
23826;SDS011;12094;50.822;4.376;2022-10-17T17:00:05;14.52;;;7.00;;
23826;SDS011;12094;50.822;4.376;2022-10-17T17:02:33;12.60;;;6.82;;
23826;SDS011;12094;50.822;4.376;2022-10-17T17:05:00;11.80;;;7.38;;
23826;SDS011;12094;50.822;4.376;2022-10-17T17:07:29;13.77;;;7.10;;
23826;SDS011;12094;50.822;4.376;2022-10-17T17:09:59;14.77;;;7.40;;
23826;SDS011;12094;50.822;4.376;2022-10-17T17:12:26;16.45;;;7.43;;
23826;SDS011;12094;50.822;4.376;2022-10-17T17:14:53;12.27;;;7.90;;
23826;SDS011;12094;50.822;4.376;2022-10-17T17:17:20;16.27;;;8.32;;
23826;SDS011;12094;50.822;4.376;2022-10-17T17:20:08;17.80;;;8.60;;
23826;SDS011;12094;50.822;4.376;2022-10-17T17:22:36;14.35;;;9.20;;
23826;SDS011;12094;50.822;4.376;2022-10-17T17:25:02;14.35;;;9.00;;
23826;SDS011;12094;50.822;4.376;2022-10-17T17:27:31;15.45;;;10.88;;
23826;SDS011;12094;50.822;4.376;2022-10-17T17:29:59;16.50;;;9.07;;
23826;SDS011;12094;50.822;4.376;2022-10-17T17:32:27;13.70;;;9.50;;
23826;SDS011;12094;50.822;4.376;2022-10-17T17:34:55;14.02;;;9.98;;
23826;SDS011;12094;50.822;4.376;2022-10-17T17:37:23;13.75;;;9.15;;
23826;SDS011;12094;50.822;4.376;2022-10-17T17:39:50;17.20;;;9.48;;